Time;durP1;ratioP1;P1;durP2;ratioP2;P2;SDS_P1;SDS_P2;PMS_P1;PMS_P2;Temp;Humidity;BMP_temperature;BMP_pressure;BME280_temperature;BME280_humidity;BME280_pressure;Samples;Min_cycle;Max_cycle;Signal;HPM_P1;HPM_P2
2023/01/15 00:02:19;;;;;;;;;246.00;198.50;;;;;;;;118027;1177;25326;-63
2023/01/15 00:04:50;;;;;;;;;256.50;198.50;;;;;;;;118072;1183;24998;-63
2023/01/15 00:07:19;;;;;;;;;251.50;198.50;;;;;;;;117917;1179;24769;-63
2023/01/15 00:09:49;;;;;;;;;265.00;201.00;;;;;;;;118123;1176;25957;-62
2023/01/15 00:12:17;;;;;;;;;264.00;198.50;;;;;;;;118087;1183;26523;-62
2023/01/15 00:14:45;;;;;;;;;260.00;198.50;;;;;;;;118120;1177;26372;-62
2023/01/15 00:17:15;;;;;;;;;245.00;184.50;;;;;;;;118115;1177;24962;-63
2023/01/15 00:19:44;;;;;;;;;248.00;185.00;;;;;;;;118019;1186;24706;-63
2023/01/15 00:22:12;;;;;;;;;234.00;177.50;;;;;;;;117842;1180;25709;-63
2023/01/15 00:27:39;;;;;;;;;240.00;169.50;;;;;;;;117615;1180;24878;-63
2023/01/15 00:30:11;;;;;;;;;241.00;173.00;;;;;;;;117914;1191;25318;-63
2023/01/15 00:32:40;;;;;;;;;208.50;159.50;;;;;;;;117969;1178;24951;-63
2023/01/15 00:35:14;;;;;;;;;229.00;184.50;;;;;;;;117965;1190;25115;-63
2023/01/15 00:37:42;;;;;;;;;230.50;171.50;;;;;;;;118125;1177;26029;-63
2023/01/15 00:40:12;;;;;;;;;229.50;177.00;;;;;;;;117947;1180;25379;-62
2023/01/15 00:42:40;;;;;;;;;206.00;169.00;;;;;;;;118100;1183;25619;-62
2023/01/15 00:45:11;;;;;;;;;232.50;173.50;;;;;;;;118080;1178;25169;-62
2023/01/15 00:47:42;;;;;;;;;231.50;169.00;;;;;;;;118061;1188;24777;-63
2023/01/15 00:50:14;;;;;;;;;204.00;164.00;;;;;;;;117974;1178;25438;-63
2023/01/15 00:52:42;;;;;;;;;192.00;156.00;;;;;;;;117986;1182;25058;-64
2023/01/15 00:55:10;;;;;;;;;209.33;161.67;;;;;;;;117973;1180;25059;-63
2023/01/15 00:57:39;;;;;;;;;202.50;152.50;;;;;;;;117967;1179;24803;-63
2023/01/15 01:00:08;;;;;;;;;198.50;150.00;;;;;;;;117936;1180;25160;-63
2023/01/15 01:02:37;;;;;;;;;205.50;162.50;;;;;;;;118102;1177;25118;-63
2023/01/15 01:05:06;;;;;;;;;206.00;163.00;;;;;;;;118149;1176;25534;-63
2023/01/15 01:07:34;;;;;;;;;185.75;154.75;;;;;;;;117860;1181;24804;-63
2023/01/15 01:10:03;;;;;;;;;197.67;158.33;;;;;;;;118141;1177;26402;-64
2023/01/15 01:12:32;;;;;;;;;206.33;152.33;;;;;;;;118145;1190;25144;-65
2023/01/15 01:15:00;;;;;;;;;195.50;151.00;;;;;;;;118110;1178;25365;-63
2023/01/15 01:17:29;;;;;;;;;193.33;155.67;;;;;;;;117965;1179;25527;-62
2023/01/15 01:19:57;;;;;;;;;178.00;131.50;;;;;;;;118100;1183;25424;-62
2023/01/15 01:22:26;;;;;;;;;193.50;142.75;;;;;;;;118100;1178;25524;-62
2023/01/15 01:24:55;;;;;;;;;187.25;143.75;;;;;;;;117984;1177;25447;-63
2023/01/15 01:27:23;;;;;;;;;170.33;139.67;;;;;;;;117955;1179;25034;-62
2023/01/15 01:29:52;;;;;;;;;183.50;140.25;;;;;;;;117961;1177;25551;-63
2023/01/15 01:32:20;;;;;;;;;185.67;137.67;;;;;;;;117939;1177;25652;-63
2023/01/15 01:34:49;;;;;;;;;185.00;148.00;;;;;;;;117876;1190;25160;-63
2023/01/15 01:37:17;;;;;;;;;190.00;139.00;;;;;;;;117796;1185;24857;-63
2023/01/15 01:39:46;;;;;;;;;159.00;123.50;;;;;;;;117909;1190;25259;-63
2023/01/15 01:42:16;;;;;;;;;156.33;119.00;;;;;;;;117919;1177;25199;-63
2023/01/15 01:44:44;;;;;;;;;159.75;127.50;;;;;;;;117830;1177;24901;-63
2023/01/15 01:47:21;;;;;;;;;147.00;116.00;;;;;;;;117905;1177;24784;-63
2023/01/15 01:49:58;;;;;;;;;151.33;117.33;;;;;;;;117935;1181;24983;-62
2023/01/15 01:52:32;;;;;;;;;163.67;123.00;;;;;;;;117948;1177;25498;-63
2023/01/15 01:55:02;;;;;;;;;148.75;116.75;;;;;;;;117873;1179;25195;-63
2023/01/15 01:57:30;;;;;;;;;143.25;116.00;;;;;;;;117867;1179;25454;-63
2023/01/15 02:00:00;;;;;;;;;152.25;114.50;;;;;;;;117869;1177;25443;-62
2023/01/15 02:02:28;;;;;;;;;152.25;112.25;;;;;;;;117851;1190;24964;-63
2023/01/15 02:04:58;;;;;;;;;136.33;112.00;;;;;;;;117805;1189;25571;-63
2023/01/15 02:07:26;;;;;;;;;166.00;119.50;;;;;;;;117852;1183;24987;-63
2023/01/15 02:09:54;;;;;;;;;145.00;114.50;;;;;;;;117835;1190;24899;-62
2023/01/15 02:12:43;;;;;;;;;138.25;111.50;;;;;;;;117989;1190;25006;-62
2023/01/15 02:15:22;;;;;;;;;143.25;109.50;;;;;;;;118114;1190;24799;-63
2023/01/15 02:18:22;;;;;;;;;139.75;108.50;;;;;;;;117899;1190;25087;-63
2023/01/15 02:21:13;;;;;;;;;130.00;104.00;;;;;;;;117936;1179;25159;-63
2023/01/15 02:23:51;;;;;;;;;135.00;108.00;;;;;;;;117891;1179;25157;-65
2023/01/15 02:26:57;;;;;;;;;127.50;102.25;;;;;;;;118153;1179;24918;-63
2023/01/15 02:29:31;;;;;;;;;134.33;104.33;;;;;;;;117992;1178;25580;-64
2023/01/15 02:32:04;;;;;;;;;134.33;104.00;;;;;;;;117813;1178;25603;-64
2023/01/15 02:34:36;;;;;;;;;126.67;100.00;;;;;;;;117853;1190;25502;-64
2023/01/15 02:37:12;;;;;;;;;112.75;87.00;;;;;;;;117845;1190;24797;-64
2023/01/15 02:39:42;;;;;;;;;119.67;93.33;;;;;;;;117783;1178;24980;-64
2023/01/15 02:42:12;;;;;;;;;123.50;98.50;;;;;;;;117878;1178;24940;-64
2023/01/15 02:44:45;;;;;;;;;126.00;97.50;;;;;;;;117960;1190;26310;-64
2023/01/15 02:47:16;;;;;;;;;118.50;95.00;;;;;;;;117959;1177;25205;-64
2023/01/15 02:49:46;;;;;;;;;96.50;90.75;;;;;;;;117938;1177;25499;-63
2023/01/15 02:52:29;;;;;;;;;114.50;91.00;;;;;;;;117835;1179;25543;-63
2023/01/15 02:55:06;;;;;;;;;102.00;85.50;;;;;;;;117908;1190;25303;-63
2023/01/15 02:57:37;;;;;;;;;113.00;92.00;;;;;;;;117925;1179;25237;-63
2023/01/15 03:00:09;;;;;;;;;124.50;93.75;;;;;;;;117942;1190;25336;-63
2023/01/15 03:02:46;;;;;;;;;104.00;88.00;;;;;;;;118006;1177;25023;-63
2023/01/15 03:05:23;;;;;;;;;106.67;87.00;;;;;;;;118112;1176;25662;-63
2023/01/15 03:07:56;;;;;;;;;109.75;82.50;;;;;;;;117993;1178;25269;-63
2023/01/15 03:10:49;;;;;;;;;105.00;82.67;;;;;;;;118104;1178;25440;-63
2023/01/15 03:13:29;;;;;;;;;92.00;75.00;;;;;;;;118097;1184;25849;-63
2023/01/15 03:18:55;;;;;;;;;108.00;85.75;;;;;;;;117944;1178;25649;-62
2023/01/15 03:21:44;;;;;;;;;99.50;77.00;;;;;;;;117936;1190;24757;-62
2023/01/15 03:24:21;;;;;;;;;93.75;76.75;;;;;;;;117941;1177;25494;-62
2023/01/15 03:26:49;;;;;;;;;99.67;77.33;;;;;;;;117997;1177;25153;-62
2023/01/15 03:29:18;;;;;;;;;84.00;69.75;;;;;;;;117975;1177;25254;-62
2023/01/15 03:31:48;;;;;;;;;105.00;80.33;;;;;;;;117947;1178;25677;-62
2023/01/15 03:34:17;;;;;;;;;98.33;75.33;;;;;;;;117918;1178;24759;-61
2023/01/15 03:36:46;;;;;;;;;83.00;73.00;;;;;;;;118009;1183;25257;-68
2023/01/15 03:39:14;;;;;;;;;92.50;71.00;;;;;;;;117929;1186;25296;-65
2023/01/15 03:42:21;;;;;;;;;83.00;68.50;;;;;;;;117910;1177;25612;-70
2023/01/15 03:45:11;;;;;;;;;90.25;67.00;;;;;;;;117753;1177;24788;-66
2023/01/15 03:48:09;;;;;;;;;86.33;69.00;;;;;;;;117943;1190;25276;-63
2023/01/15 03:50:50;;;;;;;;;80.75;60.75;;;;;;;;118082;1177;25083;-65
2023/01/15 03:53:25;;;;;;;;;85.33;61.67;;;;;;;;118225;1180;24737;-67
2023/01/15 03:56:18;;;;;;;;;80.00;63.75;;;;;;;;118144;1177;25077;-63
2023/01/15 03:58:59;;;;;;;;;80.75;61.50;;;;;;;;117976;1179;25144;-63
2023/01/15 04:01:36;;;;;;;;;80.00;63.00;;;;;;;;117942;1179;25290;-63
2023/01/15 04:04:05;;;;;;;;;80.50;61.50;;;;;;;;118097;1177;25622;-63
2023/01/15 04:06:35;;;;;;;;;74.67;54.33;;;;;;;;118040;1180;25577;-63
2023/01/15 04:09:06;;;;;;;;;74.25;58.25;;;;;;;;117979;1177;25459;-62
2023/01/15 04:11:34;;;;;;;;;71.50;59.00;;;;;;;;117945;1177;25201;-63
2023/01/15 04:14:04;;;;;;;;;74.50;59.00;;;;;;;;117971;1184;25421;-63
2023/01/15 04:16:35;;;;;;;;;80.00;60.00;;;;;;;;117878;1181;25711;-62
2023/01/15 04:19:04;;;;;;;;;77.00;60.00;;;;;;;;117850;1186;25109;-62
2023/01/15 04:21:32;;;;;;;;;79.00;58.00;;;;;;;;117965;1190;24677;-61
2023/01/15 04:24:01;;;;;;;;;77.67;58.67;;;;;;;;117959;1177;25658;-61
2023/01/15 04:26:29;;;;;;;;;72.50;52.00;;;;;;;;117927;1184;24879;-61
2023/01/15 04:28:58;;;;;;;;;77.00;55.00;;;;;;;;117892;1180;25423;-62
2023/01/15 04:31:26;;;;;;;;;67.00;51.00;;;;;;;;117910;1179;25298;-64
2023/01/15 04:33:55;;;;;;;;;71.00;52.00;;;;;;;;117929;1179;25730;-64
2023/01/15 04:36:23;;;;;;;;;69.50;52.00;;;;;;;;117876;1190;25398;-63
2023/01/15 04:38:53;;;;;;;;;72.00;52.50;;;;;;;;117861;1179;25617;-61
2023/01/15 04:44:09;;;;;;;;;67.67;50.00;;;;;;;;117890;1187;25964;-61
2023/01/15 04:46:43;;;;;;;;;67.00;51.00;;;;;;;;118107;1176;25553;-61
2023/01/15 04:49:14;;;;;;;;;71.33;52.67;;;;;;;;118086;1177;24775;-61
2023/01/15 04:51:43;;;;;;;;;67.33;49.67;;;;;;;;118121;1176;25548;-61
2023/01/15 04:54:13;;;;;;;;;71.00;50.50;;;;;;;;117984;1179;25496;-61
2023/01/15 04:56:47;;;;;;;;;70.00;51.00;;;;;;;;117929;1190;25393;-61
2023/01/15 04:59:16;;;;;;;;;70.00;51.50;;;;;;;;117931;1177;25381;-61
2023/01/15 05:01:45;;;;;;;;;70.50;51.50;;;;;;;;118089;1187;25105;-62
2023/01/15 05:04:30;;;;;;;;;67.00;48.67;;;;;;;;118135;1190;25617;-62
2023/01/15 05:07:01;;;;;;;;;69.00;51.00;;;;;;;;118123;1184;25712;-61
2023/01/15 05:09:30;;;;;;;;;68.50;49.50;;;;;;;;118114;1190;24742;-61
2023/01/15 05:11:59;;;;;;;;;70.50;51.00;;;;;;;;118024;1178;25135;-62
2023/01/15 05:14:27;;;;;;;;;65.00;48.00;;;;;;;;118085;1188;25479;-62
2023/01/15 05:16:56;;;;;;;;;58.00;45.00;;;;;;;;118096;1179;25282;-62
2023/01/15 05:19:25;;;;;;;;;65.00;48.33;;;;;;;;117967;1179;25512;-62
2023/01/15 05:21:53;;;;;;;;;63.00;47.50;;;;;;;;118111;1190;25590;-62
2023/01/15 05:24:22;;;;;;;;;64.00;47.00;;;;;;;;117989;1180;25197;-61
2023/01/15 05:26:51;;;;;;;;;62.67;50.00;;;;;;;;118118;1176;24964;-62
2023/01/15 05:29:19;;;;;;;;;64.50;48.00;;;;;;;;118106;1178;25036;-62
2023/01/15 05:31:48;;;;;;;;;64.67;47.00;;;;;;;;118082;1189;25986;-62
2023/01/15 05:34:17;;;;;;;;;64.67;45.00;;;;;;;;118121;1176;25501;-62
2023/01/15 05:36:45;;;;;;;;;61.67;44.33;;;;;;;;117995;1190;24869;-62
2023/01/15 05:39:14;;;;;;;;;60.00;44.33;;;;;;;;118148;1177;25459;-62
2023/01/15 05:41:48;;;;;;;;;57.67;43.00;;;;;;;;117943;1178;25295;-61
2023/01/15 05:44:23;;;;;;;;;54.00;42.00;;;;;;;;118004;1177;24981;-62
2023/01/15 05:46:54;;;;;;;;;56.67;42.33;;;;;;;;117906;1177;24790;-61
2023/01/15 05:49:24;;;;;;;;;56.33;42.00;;;;;;;;117916;1177;25336;-61
2023/01/15 05:51:54;;;;;;;;;57.67;42.00;;;;;;;;117905;1190;25214;-62
2023/01/15 05:54:25;;;;;;;;;57.33;43.00;;;;;;;;117954;1190;24690;-61
2023/01/15 05:56:54;;;;;;;;;59.67;42.33;;;;;;;;117953;1177;25127;-61
2023/01/15 05:59:25;;;;;;;;;61.00;45.00;;;;;;;;117894;1179;25265;-62
2023/01/15 06:01:53;;;;;;;;;54.33;41.00;;;;;;;;117859;1177;24770;-62
2023/01/15 06:04:23;;;;;;;;;58.00;42.00;;;;;;;;117895;1177;25183;-63
2023/01/15 06:06:54;;;;;;;;;54.00;41.50;;;;;;;;117873;1181;24825;-66
2023/01/15 06:09:24;;;;;;;;;49.00;41.00;;;;;;;;117915;1182;24888;-65
2023/01/15 06:11:52;;;;;;;;;58.67;41.67;;;;;;;;117958;1177;25576;-66
2023/01/15 06:14:21;;;;;;;;;47.50;39.50;;;;;;;;117991;1190;25720;-60
2023/01/15 06:16:50;;;;;;;;;59.00;40.00;;;;;;;;117958;1184;24933;-61
2023/01/15 06:19:18;;;;;;;;;57.00;41.00;;;;;;;;117960;1190;25123;-61
2023/01/15 06:21:47;;;;;;;;;52.67;37.00;;;;;;;;117931;1180;25401;-61
2023/01/15 06:24:18;;;;;;;;;52.00;38.00;;;;;;;;117974;1179;25252;-60
2023/01/15 06:26:47;;;;;;;;;51.33;35.67;;;;;;;;117910;1180;25490;-62
2023/01/15 06:29:17;;;;;;;;;54.00;38.00;;;;;;;;117927;1190;25480;-62
2023/01/15 06:31:46;;;;;;;;;44.00;35.00;;;;;;;;117970;1190;25256;-62
2023/01/15 06:34:15;;;;;;;;;49.33;39.00;;;;;;;;117842;1187;25670;-63
2023/01/15 06:36:43;;;;;;;;;50.50;39.00;;;;;;;;117945;1184;24679;-62
2023/01/15 06:39:12;;;;;;;;;51.33;38.33;;;;;;;;117921;1177;25021;-62
2023/01/15 06:47:20;;;;;;;;;48.67;37.67;;;;;;;;117938;1190;25245;-62
2023/01/15 06:49:56;;;;;;;;;51.50;36.00;;;;;;;;117909;1179;25328;-62
2023/01/15 06:52:26;;;;;;;;;42.00;34.67;;;;;;;;117961;1177;25162;-62
2023/01/15 06:54:54;;;;;;;;;46.00;36.00;;;;;;;;117941;1190;25625;-62
2023/01/15 06:57:23;;;;;;;;;44.00;33.00;;;;;;;;117925;1178;25728;-62
2023/01/15 06:59:51;;;;;;;;;46.00;37.33;;;;;;;;117924;1177;25523;-62
2023/01/15 07:02:20;;;;;;;;;45.00;34.00;;;;;;;;117909;1180;25585;-62
2023/01/15 07:04:50;;;;;;;;;49.00;33.00;;;;;;;;117844;1179;25558;-62
2023/01/15 07:07:20;;;;;;;;;37.33;32.00;;;;;;;;117950;1178;25133;-62
2023/01/15 07:09:49;;;;;;;;;43.00;30.00;;;;;;;;117974;1177;25231;-62
2023/01/15 07:12:17;;;;;;;;;40.67;32.00;;;;;;;;118111;1177;25157;-61
2023/01/15 07:14:46;;;;;;;;;47.00;34.00;;;;;;;;117951;1190;26282;-61
2023/01/15 07:17:15;;;;;;;;;41.50;33.00;;;;;;;;118110;1183;25513;-61
2023/01/15 07:19:43;;;;;;;;;29.50;29.00;;;;;;;;118132;1176;25878;-61
2023/01/15 07:22:12;;;;;;;;;38.33;33.00;;;;;;;;117890;1180;25745;-61
2023/01/15 07:24:41;;;;;;;;;47.00;35.00;;;;;;;;117916;1179;25114;-61
2023/01/15 07:27:09;;;;;;;;;36.33;30.67;;;;;;;;117834;1178;24894;-62
2023/01/15 07:29:38;;;;;;;;;46.00;30.50;;;;;;;;117803;1177;25759;-62
2023/01/15 07:32:06;;;;;;;;;31.00;27.00;;;;;;;;117867;1178;24890;-62
2023/01/15 07:34:35;;;;;;;;;37.25;29.25;;;;;;;;117926;1183;25332;-61
2023/01/15 07:37:03;;;;;;;;;49.00;36.33;;;;;;;;117968;1190;24745;-61
2023/01/15 07:39:32;;;;;;;;;46.00;31.33;;;;;;;;117951;1181;24735;-62
2023/01/15 07:50:23;;;;;;;;;37.33;26.67;;;;;;;;118073;1176;24788;-62
2023/01/15 07:52:51;;;;;;;;;37.50;30.25;;;;;;;;117975;1188;26061;-62
2023/01/15 07:55:21;;;;;;;;;28.50;25.25;;;;;;;;117909;1184;25659;-66
2023/01/15 07:57:51;;;;;;;;;34.00;29.75;;;;;;;;117897;1190;25597;-64
2023/01/15 08:00:22;;;;;;;;;26.75;24.50;;;;;;;;118015;1177;24997;-62
2023/01/15 08:02:50;;;;;;;;;35.50;30.00;;;;;;;;117926;1180;24895;-62
2023/01/15 08:05:19;;;;;;;;;37.00;30.00;;;;;;;;117945;1179;25695;-62
2023/01/15 08:07:48;;;;;;;;;36.25;30.00;;;;;;;;118093;1183;24837;-62
2023/01/15 08:10:18;;;;;;;;;30.75;24.00;;;;;;;;117993;1190;25005;-62
2023/01/15 08:15:41;;;;;;;;;37.75;30.25;;;;;;;;117882;1180;24960;-63
2023/01/15 08:18:10;;;;;;;;;35.75;27.75;;;;;;;;118004;1176;25338;-62
2023/01/15 08:20:38;;;;;;;;;35.33;28.33;;;;;;;;117904;1181;24920;-65
2023/01/15 08:23:08;;;;;;;;;32.25;26.25;;;;;;;;118082;1190;25587;-62
2023/01/15 08:25:36;;;;;;;;;26.00;24.00;;;;;;;;118070;1178;24781;-62
2023/01/15 08:28:05;;;;;;;;;33.00;27.67;;;;;;;;117964;1177;25035;-61
2023/01/15 08:30:33;;;;;;;;;24.00;22.75;;;;;;;;117954;1177;25546;-63
2023/01/15 08:33:02;;;;;;;;;28.50;19.50;;;;;;;;117932;1190;25125;-61
2023/01/15 08:35:33;;;;;;;;;32.67;28.00;;;;;;;;117970;1178;25381;-62
2023/01/15 08:38:07;;;;;;;;;21.33;20.33;;;;;;;;117955;1186;25187;-61
2023/01/15 08:40:57;;;;;;;;;34.75;26.75;;;;;;;;117911;1177;24704;-62
2023/01/15 08:43:30;;;;;;;;;31.00;26.50;;;;;;;;117983;1176;25057;-63
2023/01/15 08:45:59;;;;;;;;;23.00;23.00;;;;;;;;118009;1180;25527;-63
2023/01/15 08:48:29;;;;;;;;;28.50;24.00;;;;;;;;117937;1177;25328;-62
2023/01/15 08:50:58;;;;;;;;;56.33;40.67;;;;;;;;117941;1190;25187;-63
2023/01/15 08:53:28;;;;;;;;;41.50;33.00;;;;;;;;117869;1189;25718;-64
2023/01/15 08:55:57;;;;;;;;;32.00;29.33;;;;;;;;117997;1176;24928;-62
2023/01/15 08:58:31;;;;;;;;;42.33;35.33;;;;;;;;117851;1179;25008;-62
2023/01/15 09:01:05;;;;;;;;;31.00;28.67;;;;;;;;117939;1177;25196;-61
2023/01/15 09:03:34;;;;;;;;;38.00;32.00;;;;;;;;118010;1176;25381;-61
2023/01/15 09:06:04;;;;;;;;;39.00;31.33;;;;;;;;117969;1178;25176;-61
2023/01/15 09:08:33;;;;;;;;;42.33;30.67;;;;;;;;117862;1189;24997;-61
2023/01/15 09:11:04;;;;;;;;;42.00;29.67;;;;;;;;117830;1190;25251;-61
2023/01/15 09:13:32;;;;;;;;;37.33;31.33;;;;;;;;118017;1178;24881;-61
2023/01/15 09:16:02;;;;;;;;;42.50;32.00;;;;;;;;117951;1190;25148;-61
2023/01/15 09:18:31;;;;;;;;;49.50;36.00;;;;;;;;118105;1178;25029;-61
2023/01/15 09:20:59;;;;;;;;;40.33;31.33;;;;;;;;118122;1177;25037;-64
2023/01/15 09:23:28;;;;;;;;;33.33;30.33;;;;;;;;118031;1190;25366;-62
2023/01/15 09:25:59;;;;;;;;;38.67;32.67;;;;;;;;118043;1184;26338;-62
2023/01/15 09:28:28;;;;;;;;;36.00;30.00;;;;;;;;117928;1179;25190;-63
2023/01/15 09:30:56;;;;;;;;;35.00;27.25;;;;;;;;118006;1186;25328;-63
2023/01/15 09:33:25;;;;;;;;;42.50;29.00;;;;;;;;117908;1180;24779;-62
2023/01/15 09:35:54;;;;;;;;;39.00;28.00;;;;;;;;117948;1179;25435;-61
2023/01/15 09:38:22;;;;;;;;;35.00;28.00;;;;;;;;117976;1180;25347;-61
2023/01/15 09:40:55;;;;;;;;;39.00;30.00;;;;;;;;117992;1177;25707;-62
2023/01/15 09:43:40;;;;;;;;;34.00;26.00;;;;;;;;117968;1177;25132;-62
2023/01/15 09:46:46;;;;;;;;;42.33;28.33;;;;;;;;118002;1186;24677;-60
2023/01/15 09:49:56;;;;;;;;;38.00;28.00;;;;;;;;117884;1190;25018;-63
2023/01/15 09:52:39;;;;;;;;;28.75;26.75;;;;;;;;117778;1177;25172;-63
2023/01/15 09:55:17;;;;;;;;;25.67;25.00;;;;;;;;117962;1177;24907;-64
2023/01/15 09:57:49;;;;;;;;;34.67;29.33;;;;;;;;117933;1177;25173;-62
2023/01/15 10:00:21;;;;;;;;;34.67;27.67;;;;;;;;117970;1177;25453;-61
2023/01/15 10:02:50;;;;;;;;;36.33;28.00;;;;;;;;118053;1176;25194;-61
2023/01/15 10:05:27;;;;;;;;;36.33;24.67;;;;;;;;118109;1176;25492;-61
2023/01/15 10:08:12;;;;;;;;;30.75;24.75;;;;;;;;117860;1187;24812;-60
2023/01/15 10:10:45;;;;;;;;;29.50;25.00;;;;;;;;117913;1179;25204;-62
2023/01/15 10:13:44;;;;;;;;;29.50;26.00;;;;;;;;118104;1176;24734;-62
2023/01/15 10:16:20;;;;;;;;;22.50;17.00;;;;;;;;118105;1177;25515;-61
2023/01/15 10:18:48;;;;;;;;;34.00;26.00;;;;;;;;118100;1177;25102;-62
2023/01/15 10:21:23;;;;;;;;;28.00;24.00;;;;;;;;117907;1178;25635;-61
2023/01/15 10:24:04;;;;;;;;;27.50;23.00;;;;;;;;117982;1177;25123;-61
2023/01/15 10:26:49;;;;;;;;;28.00;21.00;;;;;;;;117966;1190;25406;-62
2023/01/15 10:29:23;;;;;;;;;29.50;23.50;;;;;;;;118116;1183;25122;-61
2023/01/15 10:32:04;;;;;;;;;28.00;20.00;;;;;;;;118047;1177;25410;-62
2023/01/15 10:35:00;;;;;;;;;24.50;20.75;;;;;;;;117915;1177;25485;-62
2023/01/15 10:37:53;;;;;;;;;27.67;20.67;;;;;;;;117936;1177;25003;-62
2023/01/15 10:40:49;;;;;;;;;25.67;21.33;;;;;;;;117850;1179;26427;-62
2023/01/15 10:43:37;;;;;;;;;22.75;18.50;;;;;;;;117844;1177;25110;-65
2023/01/15 10:46:14;;;;;;;;;24.00;18.00;;;;;;;;118089;1189;25140;-65
2023/01/15 10:48:51;;;;;;;;;19.75;16.75;;;;;;;;118073;1190;24893;-64
2023/01/15 10:51:22;;;;;;;;;23.00;20.00;;;;;;;;117790;1190;25243;-67
2023/01/15 10:54:09;;;;;;;;;26.50;22.50;;;;;;;;117809;1178;25320;-72
2023/01/15 10:57:20;;;;;;;;;31.00;22.00;;;;;;;;117985;1187;25509;-77
2023/01/15 10:59:59;;;;;;;;;26.00;22.00;;;;;;;;117416;1194;25304;-68
2023/01/15 11:02:42;;;;;;;;;28.00;22.00;;;;;;;;117763;1179;24844;-67
2023/01/15 11:05:19;;;;;;;;;25.50;21.00;;;;;;;;118094;1177;25429;-69
2023/01/15 11:07:50;;;;;;;;;23.00;20.00;;;;;;;;118108;1190;24944;-73
2023/01/15 11:10:39;;;;;;;;;24.50;20.75;;;;;;;;117892;1188;24847;-68
2023/01/15 11:19:35;;;;;;;;;24.75;20.00;;;;;;;;117986;1177;25580;-73
2023/01/15 11:22:16;;;;;;;;;25.00;18.25;;;;;;;;117932;1178;25440;-67
2023/01/15 11:24:50;;;;;;;;;21.00;20.00;;;;;;;;117830;1183;24714;-67
2023/01/15 11:27:23;;;;;;;;;20.00;17.50;;;;;;;;117887;1183;24907;-70
2023/01/15 11:29:56;;;;;;;;;25.25;20.25;;;;;;;;117814;1183;24977;-67
2023/01/15 11:32:28;;;;;;;;;20.00;16.67;;;;;;;;118159;1189;24845;-71
2023/01/15 11:35:21;;;;;;;;;25.00;18.75;;;;;;;;118074;1178;24972;-68
2023/01/15 11:38:22;;;;;;;;;18.25;17.25;;;;;;;;117916;1177;25454;-66
2023/01/15 11:40:58;;;;;;;;;14.67;14.00;;;;;;;;117961;1182;26202;-68
2023/01/15 11:52:25;;;;;;;;;21.75;18.50;;;;;;;;118004;1177;25058;-67
2023/01/15 11:54:54;;;;;;;;;22.67;17.33;;;;;;;;117909;1179;25634;-66
2023/01/15 11:57:25;;;;;;;;;20.67;15.00;;;;;;;;117833;1179;26164;-67
2023/01/15 11:59:53;;;;;;;;;23.00;17.00;;;;;;;;117865;1184;24927;-65
2023/01/15 12:02:48;;;;;;;;;19.67;16.67;;;;;;;;117932;1179;25338;-65
2023/01/15 12:05:29;;;;;;;;;19.50;15.50;;;;;;;;117932;1177;25672;-67
2023/01/15 12:08:01;;;;;;;;;18.33;17.00;;;;;;;;117963;1177;25607;-69
2023/01/15 12:11:02;;;;;;;;;17.50;14.00;;;;;;;;118128;1178;24835;-67
2023/01/15 12:14:33;;;;;;;;;17.75;15.00;;;;;;;;118057;1177;25442;-67
2023/01/15 12:17:12;;;;;;;;;15.50;14.50;;;;;;;;117419;1194;25547;-67
2023/01/15 12:20:04;;;;;;;;;19.00;16.33;;;;;;;;117982;1178;25453;-68
2023/01/15 12:22:48;;;;;;;;;19.33;14.00;;;;;;;;118116;1177;25340;-68
2023/01/15 12:26:05;;;;;;;;;18.00;14.25;;;;;;;;118067;1183;25502;-63
2023/01/15 12:28:40;;;;;;;;;16.00;11.00;;;;;;;;118039;1177;24851;-67
2023/01/15 12:31:17;;;;;;;;;13.00;12.00;;;;;;;;117812;1191;24842;-60
2023/01/15 12:33:46;;;;;;;;;18.50;16.75;;;;;;;;117925;1190;25390;-59
2023/01/15 12:36:20;;;;;;;;;18.25;15.50;;;;;;;;117988;1177;25545;-58
2023/01/15 12:38:58;;;;;;;;;16.00;13.00;;;;;;;;118047;1177;25115;-58
2023/01/15 12:47:28;;;;;;;;;19.00;14.75;;;;;;;;118008;1183;25623;-66
2023/01/15 12:50:18;;;;;;;;;12.50;12.00;;;;;;;;118016;1180;25608;-65
2023/01/15 12:52:51;;;;;;;;;15.00;12.67;;;;;;;;117995;1190;24788;-67
2023/01/15 12:55:24;;;;;;;;;16.00;15.00;;;;;;;;117946;1177;24925;-67
2023/01/15 12:57:56;;;;;;;;;16.67;15.33;;;;;;;;118087;1177;25564;-67
2023/01/15 13:00:34;;;;;;;;;18.67;13.67;;;;;;;;117941;1184;25325;-67
2023/01/15 13:03:18;;;;;;;;;16.00;10.00;;;;;;;;118047;1177;24686;-66
2023/01/15 13:05:59;;;;;;;;;16.00;13.00;;;;;;;;117922;1177;25219;-66
2023/01/15 13:08:38;;;;;;;;;17.33;15.67;;;;;;;;117943;1179;25340;-67
2023/01/15 13:11:11;;;;;;;;;15.50;14.00;;;;;;;;117918;1180;25614;-65
2023/01/15 13:13:40;;;;;;;;;16.50;15.50;;;;;;;;117932;1186;24799;-66
2023/01/15 13:16:17;;;;;;;;;17.00;14.50;;;;;;;;117881;1179;25510;-66
2023/01/15 13:18:58;;;;;;;;;11.00;10.00;;;;;;;;117868;1180;24842;-67
2023/01/15 13:21:29;;;;;;;;;15.25;13.50;;;;;;;;117879;1189;25269;-66
2023/01/15 13:24:00;;;;;;;;;12.00;9.50;;;;;;;;117929;1183;25542;-68
2023/01/15 13:26:47;;;;;;;;;15.67;14.33;;;;;;;;118027;1177;25604;-66
2023/01/15 13:29:57;;;;;;;;;16.25;12.00;;;;;;;;117915;1181;25558;-65
2023/01/15 13:32:29;;;;;;;;;16.00;13.33;;;;;;;;117876;1177;25483;-69
2023/01/15 13:35:07;;;;;;;;;18.00;14.00;;;;;;;;117972;1177;25029;-70
2023/01/15 13:37:52;;;;;;;;;16.75;13.75;;;;;;;;118002;1177;25758;-69
2023/01/15 13:40:33;;;;;;;;;14.00;11.00;;;;;;;;117984;1178;24753;-67
2023/01/15 13:43:03;;;;;;;;;15.00;11.00;;;;;;;;117910;1177;25808;-67
2023/01/15 13:45:38;;;;;;;;;18.33;12.33;;;;;;;;118001;1178;25524;-69
2023/01/15 13:48:50;;;;;;;;;19.00;15.33;;;;;;;;118101;1176;25029;-66
2023/01/15 13:51:36;;;;;;;;;18.00;14.00;;;;;;;;118100;1177;24822;-66
2023/01/15 13:54:15;;;;;;;;;14.67;12.67;;;;;;;;117860;1187;25819;-65
2023/01/15 13:56:44;;;;;;;;;20.25;15.25;;;;;;;;118003;1188;24917;-69
2023/01/15 13:59:46;;;;;;;;;16.00;13.25;;;;;;;;117936;1179;24922;-68
2023/01/15 14:02:37;;;;;;;;;16.00;13.00;;;;;;;;117697;1177;25053;-67
2023/01/15 14:05:33;;;;;;;;;16.75;13.50;;;;;;;;117934;1179;24883;-67
2023/01/15 14:08:14;;;;;;;;;13.50;10.75;;;;;;;;117973;1177;24822;-66
2023/01/15 14:10:43;;;;;;;;;8.75;8.25;;;;;;;;117962;1179;25423;-68
2023/01/15 14:13:33;;;;;;;;;18.00;13.00;;;;;;;;118038;1177;25285;-69
2023/01/15 14:16:32;;;;;;;;;13.25;12.00;;;;;;;;118013;1190;26217;-69
2023/01/15 14:19:39;;;;;;;;;20.00;16.25;;;;;;;;117961;1177;24789;-72
2023/01/15 14:22:25;;;;;;;;;30.00;19.25;;;;;;;;117950;1176;25281;-70
2023/01/15 14:25:03;;;;;;;;;26.00;21.50;;;;;;;;118039;1190;25036;-70
2023/01/15 14:28:03;;;;;;;;;44.67;26.00;;;;;;;;117986;1181;25051;-74
2023/01/15 14:31:02;;;;;;;;;28.00;20.00;;;;;;;;117983;1176;25417;-68
2023/01/15 14:33:40;;;;;;;;;26.75;17.50;;;;;;;;117890;1177;24767;-68
2023/01/15 14:36:11;;;;;;;;;40.00;29.00;;;;;;;;117920;1178;25296;-68
2023/01/15 14:38:46;;;;;;;;;38.25;24.50;;;;;;;;117892;1177;25117;-69
2023/01/15 14:41:15;;;;;;;;;30.25;20.75;;;;;;;;118026;1177;25123;-71
2023/01/15 14:43:48;;;;;;;;;34.50;23.25;;;;;;;;118046;1177;25599;-70
2023/01/15 14:46:32;;;;;;;;;49.25;33.50;;;;;;;;117907;1177;25487;-70
2023/01/15 14:49:01;;;;;;;;;33.33;24.00;;;;;;;;117930;1183;25576;-67
2023/01/15 14:51:36;;;;;;;;;33.75;26.25;;;;;;;;117881;1177;25737;-66
2023/01/15 14:54:10;;;;;;;;;36.75;22.50;;;;;;;;117894;1185;25307;-70
2023/01/15 14:56:50;;;;;;;;;35.00;22.33;;;;;;;;117873;1179;25587;-68
2023/01/15 14:59:29;;;;;;;;;29.25;22.25;;;;;;;;117756;1181;25406;-64
2023/01/15 15:02:01;;;;;;;;;28.00;24.67;;;;;;;;118748;1178;24775;-66
2023/01/15 15:04:52;;;;;;;;;33.33;22.67;;;;;;;;118016;1177;24810;-67
2023/01/15 15:07:24;;;;;;;;;27.00;21.75;;;;;;;;117828;1189;25086;-68
2023/01/15 15:10:02;;;;;;;;;24.00;22.00;;;;;;;;117815;1187;24833;-68
2023/01/15 15:13:03;;;;;;;;;25.25;19.50;;;;;;;;117860;1187;25053;-67
2023/01/15 15:15:46;;;;;;;;;32.00;26.67;;;;;;;;117889;1179;24772;-70
2023/01/15 15:18:26;;;;;;;;;22.33;19.33;;;;;;;;117849;1181;25541;-70
2023/01/15 15:21:00;;;;;;;;;29.67;19.00;;;;;;;;117812;1182;25711;-70
2023/01/15 15:24:02;;;;;;;;;30.33;23.33;;;;;;;;117890;1177;25244;-66
2023/01/15 15:26:34;;;;;;;;;24.00;20.50;;;;;;;;117927;1177;25589;-59
2023/01/15 15:29:04;;;;;;;;;24.00;18.67;;;;;;;;118101;1187;26199;-59
2023/01/15 15:31:35;;;;;;;;;26.00;20.00;;;;;;;;118098;1186;24979;-58